Centennial Airport
KAPA : now visible

Airfield :











YOU CAN JOIN US ON...

 
LOGIN :

Register | Disclaimer

   EN    FR    IT 

 









Legend :    VFR   Marginal VFR   IFR   Intensive IFR   Very Intensive IFR
Visi :
Ceiling :
>= 8 km
>= 3000ft
5 to 8 km
1000 to 3000 ft
1500m to 5 km
500 to 1000 ft
800 to 1500m
200 to 500 ft
< 800m
< 200 ft
Symbols :   Thunderstorms  Fog  Heavy snow  Heavy precipitations  Wind > 20 kt






- Airport Elevation : 5885 ft


KAPA - Centennial

CURRENT METAR :
  • 042153Z 35012KT 10SM FEW080 SCT140 SCT200 31/11 A3011 RMK AO2 SLP111 VIRGA DSNT W T03060106

EXPIRED METARs :
  • 042053Z 34012KT 10SM FEW080 FEW130 FEW200 33/11 A3011 RMK AO2 SLP107 T03280106 58003
  • 041953Z 03003KT 10SM FEW080 FEW130 FEW200 32/09 A3011 RMK AO2 SLP107 T03170094

TAF KAPA
Valid from the 04 at 18:00 until the 05 at 18:00 UTC


041727Z 0418/0518 34008KT P6SM FEW080 SCT140
FM042100 34015KT P6SM VCSH SCT080 BKN150
FM042300 03015G24KT P6SM VCTS SCT080CB BKN140
FM050100 08015KT P6SM FEW080 BKN150
FM050300 15010KT P6SM FEW080 SCT150
FM050600 19007KT P6SM SCT150
KZDV FIR / North America



MET'MAP, your aeronautical weather chart ! - Copyright ORBIFLY December 2007 - Disclaimer

ORBIFLY MET'MAP TEAM :

Programming & Development : Alexandra Zaïnal
Concept & original design : Baudouin d'Aumeries
Assistance for programming : Marc-Olivier Méhu
Technical & hardware support : Manuel Goepfert

Contact : metmap@orbifly.com




SOURCES & CREDITS :

   NOAA       Earth
Advisory